createdAt,value
2019-02-08T00:03:20.472Z,9.03
2019-02-08T00:06:06.695Z,9.10
2019-02-08T00:08:52.591Z,9.73
2019-02-08T00:11:38.499Z,9.23
2019-02-08T00:14:24.787Z,10.73
2019-02-08T00:17:04.602Z,10.53
2019-02-08T00:19:50.489Z,9.60
2019-02-08T00:22:36.635Z,9.83
2019-02-08T00:25:22.728Z,9.13
2019-02-08T00:28:08.938Z,9.50
2019-02-08T00:30:54.842Z,10.03
2019-02-08T00:33:34.667Z,9.23
2019-02-08T00:36:21.103Z,9.10
2019-02-08T00:39:28.846Z,8.13
2019-02-08T00:42:14.740Z,8.23
2019-02-08T00:45:00.872Z,7.70
2019-02-08T00:47:46.758Z,8.10
2019-02-08T00:50:32.676Z,8.97
2019-02-08T00:53:18.549Z,9.23
2019-02-08T00:56:04.552Z,9.27
2019-02-08T00:58:50.459Z,8.73
2019-02-08T01:01:36.359Z,9.03
2019-02-08T01:04:22.496Z,8.80
2019-02-08T01:07:08.400Z,8.27
2019-02-08T01:09:54.382Z,8.13
2019-02-08T01:12:40.389Z,10.60
2019-02-08T01:15:27.094Z,9.20
2019-02-08T01:18:12.976Z,8.97
2019-02-08T01:20:58.875Z,9.83
2019-02-08T01:23:44.758Z,8.83
2019-02-08T01:26:30.659Z,8.80
2019-02-08T01:29:16.550Z,9.53
2019-02-08T01:32:02.463Z,8.57
2019-02-08T01:34:42.289Z,7.77
2019-02-08T01:37:28.454Z,9.10
2019-02-08T01:40:36.127Z,8.47
2019-02-08T01:43:22.258Z,7.33
2019-02-08T01:46:08.380Z,8.80
2019-02-08T01:48:54.274Z,8.17
2019-02-08T01:51:40.173Z,8.70
2019-02-08T01:54:26.068Z,7.77
2019-02-08T01:57:11.965Z,7.70
2019-02-08T01:59:57.854Z,7.17
2019-02-08T02:02:43.743Z,7.67
2019-02-08T02:05:29.648Z,7.73
2019-02-08T02:08:15.535Z,7.07
2019-02-08T02:11:01.451Z,7.67
2019-02-08T02:13:47.339Z,8.07
2019-02-08T02:16:33.242Z,8.20
2019-02-08T02:19:19.139Z,8.53
2019-02-08T02:22:05.034Z,7.40
2019-02-08T02:24:50.928Z,7.40
2019-02-08T02:27:37.050Z,7.73
2019-02-08T02:30:44.742Z,7.63
2019-02-08T02:33:30.631Z,7.83
2019-02-08T02:36:10.475Z,7.50
2019-02-08T02:38:56.375Z,7.17
2019-02-08T02:41:42.502Z,7.33
2019-02-08T02:44:28.399Z,7.40
2019-02-08T02:47:14.310Z,7.77
2019-02-08T02:50:00.191Z,7.07
2019-02-08T02:52:46.344Z,7.00
2019-02-08T02:55:32.331Z,6.73
2019-02-08T02:58:18.466Z,7.27
2019-02-08T03:01:04.852Z,6.93
2019-02-08T03:03:50.759Z,6.37
2019-02-08T03:06:36.645Z,7.13
2019-02-08T03:09:22.547Z,7.03
2019-02-08T03:12:08.430Z,7.03
2019-02-08T03:14:54.327Z,6.93
2019-02-08T03:17:40.225Z,7.10
2019-02-08T03:20:26.118Z,7.70
2019-02-08T03:23:12.344Z,7.37
2019-02-08T03:25:58.251Z,7.13
2019-02-08T03:28:44.137Z,7.47
2019-02-08T03:31:30.043Z,6.57
2019-02-08T03:34:09.619Z,6.03
2019-02-08T03:36:55.505Z,7.10
2019-02-08T03:39:41.479Z,6.93
2019-02-08T03:42:27.380Z,6.77
2019-02-08T03:45:13.395Z,6.80
2019-02-08T03:47:59.288Z,7.37
2019-02-08T03:50:45.227Z,6.80
2019-02-08T03:53:31.124Z,6.10
2019-02-08T03:56:17.271Z,6.90
2019-02-08T03:59:03.160Z,6.63
2019-02-08T04:01:49.076Z,5.50
2019-02-08T04:04:35.068Z,5.37
2019-02-08T04:07:21.215Z,5.60
2019-02-08T04:10:28.887Z,6.10
2019-02-08T04:13:15.022Z,5.40
2019-02-08T04:16:01.143Z,6.20
2019-02-08T04:18:47.044Z,6.10
2019-02-08T04:21:32.948Z,5.53
2019-02-08T04:24:18.863Z,6.47
2019-02-08T04:27:04.769Z,6.03
2019-02-08T04:29:50.897Z,6.00
2019-02-08T04:32:37.028Z,6.77
2019-02-08T04:35:17.331Z,6.30
2019-02-08T04:38:03.351Z,7.10
2019-02-08T04:40:49.234Z,7.50
2019-02-08T04:43:35.228Z,6.03
2019-02-08T04:46:21.125Z,5.50
2019-02-08T04:49:07.028Z,5.73
2019-02-08T04:51:53.156Z,5.70
2019-02-08T04:54:39.060Z,6.07
2019-02-08T04:57:24.949Z,6.43
2019-02-08T05:00:32.738Z,6.40
2019-02-08T05:03:18.653Z,6.37
2019-02-08T05:06:04.551Z,6.53
2019-02-08T05:08:50.703Z,7.03
2019-02-08T05:11:36.598Z,7.30
2019-02-08T05:14:22.608Z,7.73
2019-02-08T05:17:08.507Z,7.20
2019-02-08T05:19:54.662Z,7.83
2019-02-08T05:22:40.637Z,7.67
2019-02-08T05:25:26.720Z,7.00
2019-02-08T05:28:12.619Z,6.63
2019-02-08T05:30:58.535Z,6.37
2019-02-08T05:33:44.420Z,6.70
2019-02-08T05:36:23.779Z,7.90
2019-02-08T05:39:09.656Z,6.87
2019-02-08T05:41:55.562Z,7.27
2019-02-08T05:44:41.445Z,7.30
2019-02-08T05:47:27.388Z,6.43
2019-02-08T05:50:35.065Z,8.37
2019-02-08T05:53:20.978Z,5.77
2019-02-08T05:56:06.866Z,6.23
2019-02-08T05:58:52.766Z,6.23
2019-02-08T06:01:38.673Z,6.33
2019-02-08T06:04:24.570Z,6.17
2019-02-08T06:07:10.468Z,8.13
2019-02-08T06:09:36.479Z,11.57
2019-02-08T06:12:03.210Z,7.43
2019-02-08T06:14:29.526Z,7.57
2019-02-08T06:16:55.570Z,7.47
2019-02-08T06:19:21.581Z,5.67
2019-02-08T06:21:47.590Z,6.97
2019-02-08T06:24:13.647Z,6.40
2019-02-08T06:26:39.659Z,7.17
2019-02-08T06:29:05.696Z,6.83
2019-02-08T06:31:31.715Z,6.90
2019-02-08T06:33:57.763Z,6.07
2019-02-08T06:36:23.775Z,7.10
2019-02-08T06:38:50.083Z,6.73
2019-02-08T06:41:16.098Z,6.60
2019-02-08T06:43:42.121Z,7.10
2019-02-08T06:46:08.130Z,6.97
2019-02-08T06:48:34.154Z,7.30
2019-02-08T06:51:00.171Z,6.97
2019-02-08T06:53:26.210Z,6.10
2019-02-08T06:55:53.888Z,6.50
2019-02-08T06:58:24.746Z,5.70
2019-02-08T07:00:53.474Z,5.67
2019-02-08T07:03:27.592Z,5.47
2019-02-08T07:05:55.515Z,5.83
2019-02-08T07:08:35.315Z,6.57
2019-02-08T07:11:03.243Z,6.50
2019-02-08T07:13:31.159Z,7.37
2019-02-08T07:16:04.829Z,6.27
2019-02-08T07:18:38.289Z,7.70
2019-02-08T07:21:15.053Z,6.57
2019-02-08T07:23:52.157Z,6.00
2019-02-08T07:26:31.819Z,7.30
2019-02-08T07:28:59.727Z,7.03
2019-02-08T07:31:36.780Z,6.83
2019-02-08T07:34:22.066Z,6.97
2019-02-08T07:36:56.372Z,7.40
2019-02-08T07:39:39.464Z,6.53
2019-02-08T07:42:10.599Z,7.63
2019-02-08T07:44:45.375Z,6.73
2019-02-08T07:47:16.363Z,6.83
2019-02-08T07:49:52.088Z,6.60
2019-02-08T07:52:22.977Z,7.13
2019-02-08T07:54:51.087Z,7.03
2019-02-08T07:57:19.204Z,7.17
2019-02-08T07:59:49.888Z,6.07
2019-02-08T08:02:34.967Z,7.13
2019-02-08T08:05:03.477Z,5.43
2019-02-08T08:07:34.441Z,7.23
2019-02-08T08:10:08.221Z,5.37
2019-02-08T08:12:42.546Z,5.53
2019-02-08T08:15:14.279Z,6.53
2019-02-08T08:17:42.710Z,6.47
2019-02-08T08:20:31.254Z,6.77
2019-02-08T08:22:59.260Z,5.10
2019-02-08T08:25:35.087Z,4.90
2019-02-08T08:28:09.071Z,5.20
2019-02-08T08:30:40.134Z,4.70
2019-02-08T08:33:14.275Z,4.60
2019-02-08T08:35:50.119Z,5.10
2019-02-08T08:38:41.442Z,5.47
2019-02-08T08:41:29.746Z,4.93
2019-02-08T08:44:19.466Z,4.90
2019-02-08T08:47:07.828Z,4.10
2019-02-08T08:49:52.618Z,4.57
2019-02-08T08:52:37.378Z,3.23
2019-02-08T08:55:32.429Z,3.73
2019-02-08T08:58:08.371Z,4.27
2019-02-08T09:00:56.619Z,3.97
2019-02-08T09:03:32.591Z,4.00
2019-02-08T09:06:28.541Z,3.53
2019-02-08T09:09:19.450Z,3.90
2019-02-08T09:12:01.399Z,3.73
2019-02-08T09:15:01.447Z,4.07
2019-02-08T09:18:06.350Z,3.83
2019-02-08T09:21:05.334Z,3.70
2019-02-08T09:23:50.377Z,3.37
2019-02-08T09:26:23.076Z,3.67
2019-02-08T09:29:14.046Z,4.20
2019-02-08T09:32:10.166Z,4.40
2019-02-08T09:34:55.506Z,3.47
2019-02-08T09:37:48.502Z,3.53
2019-02-08T09:40:21.354Z,4.47
2019-02-08T09:42:57.236Z,4.23
2019-02-08T09:45:45.355Z,3.67
2019-02-08T09:48:20.753Z,4.43
2019-02-08T09:50:56.789Z,4.33
2019-02-08T09:53:52.384Z,3.47
2019-02-08T09:56:38.905Z,3.60
2019-02-08T09:59:14.735Z,3.57
2019-02-08T10:02:01.882Z,2.53
2019-02-08T10:04:37.922Z,3.13
2019-02-08T10:07:10.814Z,2.33
2019-02-08T10:09:49.428Z,2.87
2019-02-08T10:12:54.754Z,2.13
2019-02-08T10:15:44.483Z,3.20
2019-02-08T10:18:33.951Z,2.53
2019-02-08T10:21:23.291Z,2.47
2019-02-08T10:24:14.283Z,2.33
2019-02-08T10:26:50.449Z,2.27
2019-02-08T10:29:54.261Z,1.83
2019-02-08T10:32:50.278Z,2.50
2019-02-08T10:35:29.104Z,2.43
2019-02-08T10:38:28.026Z,2.60
2019-02-08T10:41:07.133Z,2.67
2019-02-08T10:44:00.194Z,2.80
2019-02-08T10:46:46.793Z,2.60
2019-02-08T10:49:46.998Z,3.00
2019-02-08T10:52:39.954Z,1.80
2019-02-08T10:55:12.459Z,2.07
2019-02-08T10:58:16.278Z,1.80
2019-02-08T11:01:23.007Z,4.30
2019-02-08T11:04:18.359Z,2.73
2019-02-08T11:07:00.016Z,2.20
2019-02-08T11:09:53.774Z,2.10
2019-02-08T11:12:58.714Z,2.37
2019-02-08T11:15:48.621Z,1.77
2019-02-08T11:18:25.835Z,2.57
2019-02-08T11:20:51.890Z,2.13
2019-02-08T11:23:18.232Z,2.20
2019-02-08T11:25:44.567Z,2.27
2019-02-08T11:28:10.574Z,1.80
2019-02-08T11:30:36.920Z,2.30
2019-02-08T11:33:03.648Z,2.77
2019-02-08T11:35:29.678Z,1.80
2019-02-08T11:37:55.700Z,2.40
2019-02-08T11:40:23.647Z,1.97
2019-02-08T11:42:49.675Z,2.57
2019-02-08T11:45:16.677Z,2.07
2019-02-08T11:47:43.185Z,1.80
2019-02-08T11:50:16.007Z,2.57
2019-02-08T11:52:42.036Z,2.40
2019-02-08T11:55:08.452Z,1.93
2019-02-08T11:57:34.476Z,2.30
2019-02-08T12:00:00.477Z,3.10
2019-02-08T12:02:26.503Z,2.13
2019-02-08T12:04:52.538Z,2.67
2019-02-08T12:07:18.542Z,2.40
2019-02-08T12:09:44.572Z,1.87
2019-02-08T12:12:10.619Z,2.90
2019-02-08T12:14:36.630Z,2.03
2019-02-08T12:17:02.674Z,2.30
2019-02-08T12:19:28.682Z,1.70
2019-02-08T12:21:56.078Z,2.47
2019-02-08T12:24:22.333Z,2.47
2019-02-08T12:26:48.351Z,2.27
2019-02-08T12:29:14.359Z,2.17
2019-02-08T12:31:40.410Z,2.27
2019-02-08T12:34:06.530Z,2.00
2019-02-08T12:36:32.755Z,1.80
2019-02-08T12:38:58.778Z,2.07
2019-02-08T12:41:24.804Z,1.87
2019-02-08T12:43:50.815Z,2.13
2019-02-08T12:46:17.360Z,2.00
2019-02-08T12:48:43.470Z,2.40
2019-02-08T12:51:09.758Z,2.07
2019-02-08T12:53:35.778Z,2.30
2019-02-08T12:56:02.002Z,1.83
2019-02-08T12:58:28.339Z,1.77
2019-02-08T13:00:54.455Z,1.90
2019-02-08T13:03:20.800Z,2.43
2019-02-08T13:05:46.815Z,2.43
2019-02-08T13:08:13.151Z,2.10
2019-02-08T13:10:39.181Z,2.63
2019-02-08T13:13:05.191Z,2.73
2019-02-08T13:15:31.212Z,2.50
2019-02-08T13:17:57.553Z,2.60
2019-02-08T13:20:23.865Z,2.50
2019-02-08T13:22:49.987Z,2.07
2019-02-08T13:25:16.830Z,2.30
2019-02-08T13:27:43.148Z,2.30
2019-02-08T13:30:22.170Z,2.40
2019-02-08T13:32:48.285Z,2.50
2019-02-08T13:35:14.423Z,2.10
2019-02-08T13:37:40.755Z,2.03
2019-02-08T13:40:10.375Z,2.10
2019-02-08T13:42:36.652Z,2.10
2019-02-08T13:45:05.667Z,1.80
2019-02-08T13:47:31.682Z,2.30
2019-02-08T13:49:57.714Z,2.07
2019-02-08T13:52:23.743Z,1.97
2019-02-08T13:54:50.031Z,2.47
2019-02-08T13:57:16.074Z,2.73
2019-02-08T13:59:42.502Z,2.03
2019-02-08T14:02:08.846Z,1.93
2019-02-08T14:04:34.846Z,2.87
2019-02-08T14:07:01.183Z,2.27
2019-02-08T14:09:27.207Z,1.73
2019-02-08T14:11:53.226Z,1.67
2019-02-08T14:14:19.250Z,1.93
2019-02-08T14:16:45.279Z,1.87
2019-02-08T14:19:11.303Z,1.87
2019-02-08T14:21:37.314Z,1.57
2019-02-08T14:24:03.363Z,1.40
2019-02-08T14:26:29.383Z,1.77
2019-02-08T14:28:55.408Z,2.00
2019-02-08T14:31:21.423Z,1.23
2019-02-08T14:33:47.449Z,1.20
2019-02-08T14:36:13.489Z,0.90
2019-02-08T14:38:39.512Z,1.30
2019-02-08T14:41:05.538Z,1.50
2019-02-08T14:43:31.560Z,1.53
2019-02-08T14:45:57.576Z,1.50
2019-02-08T14:48:23.582Z,1.17
2019-02-08T14:50:49.924Z,1.27
2019-02-08T14:53:15.937Z,1.57
2019-02-08T14:55:42.276Z,1.63
2019-02-08T14:58:08.607Z,1.77
2019-02-08T15:00:34.639Z,1.67
2019-02-08T15:03:00.645Z,1.40
2019-02-08T15:05:26.671Z,1.50
2019-02-08T15:07:52.697Z,1.13
2019-02-08T15:10:27.911Z,1.73
2019-02-08T15:12:53.922Z,1.60
2019-02-08T15:15:19.943Z,1.70
2019-02-08T15:17:46.062Z,1.50
2019-02-08T15:20:20.767Z,1.27
2019-02-08T15:22:46.785Z,1.83
2019-02-08T15:25:13.119Z,2.00
2019-02-08T15:27:39.132Z,2.67
2019-02-08T15:30:08.946Z,1.60
2019-02-08T15:32:34.977Z,2.20
2019-02-08T15:35:01.097Z,1.40
2019-02-08T15:37:27.130Z,1.87
2019-02-08T15:39:53.136Z,2.17
2019-02-08T15:42:19.263Z,1.60
2019-02-08T15:44:45.611Z,1.90
2019-02-08T15:47:12.353Z,1.40
2019-02-08T15:49:38.482Z,1.73
2019-02-08T15:52:04.910Z,1.63
2019-02-08T15:54:30.993Z,1.90
2019-02-08T15:56:57.026Z,1.80
2019-02-08T15:59:23.392Z,1.70
2019-02-08T16:01:50.067Z,1.80
2019-02-08T16:04:16.227Z,2.47
2019-02-08T16:06:42.435Z,1.50
2019-02-08T16:09:09.370Z,1.50
2019-02-08T16:11:35.385Z,1.90
2019-02-08T16:14:01.397Z,2.00
2019-02-08T16:16:27.507Z,1.77
2019-02-08T16:18:53.518Z,2.43
2019-02-08T16:21:19.555Z,2.03
2019-02-08T16:23:45.562Z,3.17
2019-02-08T16:26:11.910Z,4.20
2019-02-08T16:28:40.638Z,3.70
2019-02-08T16:31:06.872Z,4.03
2019-02-08T16:33:33.167Z,5.00
2019-02-08T16:35:59.185Z,2.80
2019-02-08T16:38:25.198Z,4.73
2019-02-08T16:40:51.223Z,4.10
2019-02-08T16:43:17.234Z,2.83
2019-02-08T16:45:43.646Z,3.03
2019-02-08T16:48:11.543Z,2.03
2019-02-08T16:50:37.991Z,3.90
2019-02-08T16:53:06.566Z,2.53
2019-02-08T16:55:32.785Z,3.43
2019-02-08T16:57:58.798Z,2.33
2019-02-08T17:00:30.733Z,3.00
2019-02-08T17:02:59.049Z,2.37
2019-02-08T17:05:26.726Z,2.43
2019-02-08T17:07:52.750Z,2.33
2019-02-08T17:10:18.759Z,3.00
2019-02-08T17:12:45.623Z,2.07
2019-02-08T17:15:14.861Z,2.00
2019-02-08T17:17:40.879Z,1.90
2019-02-08T17:20:10.710Z,2.03
2019-02-08T17:22:36.699Z,1.80
2019-02-08T17:25:04.029Z,1.63
2019-02-08T17:27:30.034Z,1.87
2019-02-08T17:29:56.091Z,2.07
2019-02-08T17:32:22.114Z,1.40
2019-02-08T17:34:48.146Z,1.63
2019-02-08T17:37:14.478Z,1.47
2019-02-08T17:39:40.810Z,1.20
2019-02-08T17:42:06.819Z,1.73
2019-02-08T17:44:32.856Z,1.77
2019-02-08T17:46:58.879Z,1.93
2019-02-08T17:49:24.926Z,1.60
2019-02-08T17:51:50.945Z,2.30
2019-02-08T17:54:16.974Z,1.93
2019-02-08T17:56:42.994Z,1.77
2019-02-08T17:59:09.114Z,1.87
2019-02-08T18:01:35.126Z,1.70
2019-02-08T18:04:01.150Z,1.60
2019-02-08T18:06:27.478Z,1.60
2019-02-08T18:12:52.458Z,2.03
2019-02-08T18:15:38.362Z,2.30
2019-02-08T18:18:24.474Z,1.77
2019-02-08T18:21:10.386Z,2.00
2019-02-08T18:23:56.510Z,2.07
2019-02-08T18:26:42.411Z,1.77
2019-02-08T18:29:28.322Z,2.73
2019-02-08T18:32:14.455Z,1.97
2019-02-08T18:35:00.395Z,4.23
2019-02-08T18:37:46.634Z,2.87
2019-02-08T18:40:32.765Z,3.13
2019-02-08T18:43:18.650Z,2.70
2019-02-08T18:46:04.659Z,2.40
2019-02-08T18:48:50.571Z,2.40
2019-02-08T18:51:30.200Z,2.10
2019-02-08T18:54:16.070Z,3.70
2019-02-08T18:57:03.678Z,2.53
2019-02-08T18:59:50.007Z,2.87
2019-02-08T19:02:35.918Z,2.77
2019-02-08T19:05:21.815Z,5.00
2019-02-08T19:08:07.832Z,5.87
2019-02-08T19:10:53.715Z,3.93
2019-02-08T19:13:39.619Z,3.30
2019-02-08T19:16:25.513Z,2.83
2019-02-08T19:19:11.425Z,4.20
2019-02-08T19:21:57.319Z,5.40
2019-02-08T19:24:43.261Z,6.37
2019-02-08T19:27:29.227Z,4.07
2019-02-08T19:30:16.563Z,4.57
2019-02-08T19:33:03.204Z,4.77
2019-02-08T19:35:49.125Z,4.27
2019-02-08T19:38:35.220Z,5.00
2019-02-08T19:41:21.142Z,4.40
2019-02-08T19:44:07.033Z,9.27
2019-02-08T19:46:52.946Z,7.40
2019-02-08T19:49:38.850Z,5.13
2019-02-08T19:52:18.537Z,10.73
2019-02-08T19:55:26.453Z,8.97
2019-02-08T19:58:12.360Z,9.77
2019-02-08T20:00:58.283Z,6.07
2019-02-08T20:03:44.195Z,5.90
2019-02-08T20:06:10.318Z,2.90
2019-02-08T20:08:36.537Z,3.17
2019-02-08T20:11:02.745Z,2.17
2019-02-08T20:13:29.071Z,2.30
2019-02-08T20:15:55.074Z,2.37
2019-02-08T20:18:21.107Z,2.10
2019-02-08T20:20:47.114Z,2.57
2019-02-08T20:23:13.133Z,2.47
2019-02-08T20:25:39.138Z,1.83
2019-02-08T20:28:05.566Z,2.73
2019-02-08T20:30:31.878Z,2.57
2019-02-08T20:32:58.390Z,2.87
2019-02-08T20:35:25.598Z,3.30
2019-02-08T20:37:51.908Z,2.40
2019-02-08T20:40:25.703Z,2.70
2019-02-08T20:42:51.725Z,2.57
2019-02-08T20:45:20.170Z,2.10
2019-02-08T20:47:46.399Z,2.23
2019-02-08T20:50:14.439Z,2.53
2019-02-08T20:52:40.790Z,2.90
2019-02-08T20:55:08.714Z,3.90
2019-02-08T20:57:34.955Z,2.70
2019-02-08T21:00:01.601Z,2.70
2019-02-08T21:02:27.607Z,2.80
2019-02-08T21:04:53.963Z,3.00
2019-02-08T21:07:19.961Z,3.17
2019-02-08T21:09:46.219Z,5.30
2019-02-08T21:12:12.226Z,2.93
2019-02-08T21:14:38.306Z,3.07
2019-02-08T21:17:04.305Z,2.67
2019-02-08T21:19:30.337Z,2.73
2019-02-08T21:21:56.350Z,2.83
2019-02-08T21:24:22.592Z,3.10
2019-02-08T21:26:48.598Z,3.33
2019-02-08T21:29:14.847Z,3.50
2019-02-08T21:31:41.107Z,3.30
2019-02-08T21:34:07.101Z,3.60
2019-02-08T21:36:38.813Z,4.03
2019-02-08T21:39:01.063Z,4.90
2019-02-08T21:41:27.155Z,5.80
2019-02-08T21:43:53.179Z,3.40
2019-02-08T21:46:19.306Z,3.33
2019-02-08T21:48:45.309Z,2.93
2019-02-08T21:51:11.337Z,3.23
2019-02-08T21:53:37.338Z,2.73
2019-02-08T21:56:03.779Z,3.10
2019-02-08T21:58:29.783Z,3.13
2019-02-08T22:00:55.793Z,2.87
2019-02-08T22:03:21.814Z,2.73
2019-02-08T22:05:51.414Z,2.20
2019-02-08T22:08:17.441Z,2.37
2019-02-08T22:10:43.452Z,2.87
2019-02-08T22:13:09.474Z,2.93
2019-02-08T22:15:37.781Z,2.67
2019-02-08T22:18:05.358Z,2.57
2019-02-08T22:20:31.697Z,3.07
2019-02-08T22:22:57.803Z,3.13
2019-02-08T22:25:26.226Z,4.10
2019-02-08T22:27:52.462Z,3.87
2019-02-08T22:30:22.812Z,5.00
2019-02-08T22:32:50.124Z,2.73
2019-02-08T22:35:17.442Z,3.07
2019-02-08T22:37:43.646Z,2.17
2019-02-08T22:40:14.683Z,1.80
2019-02-08T22:42:40.903Z,1.87
2019-02-08T22:45:13.294Z,3.47
2019-02-08T22:47:39.306Z,3.60
2019-02-08T22:50:09.138Z,2.60
2019-02-08T22:52:35.146Z,2.73
2019-02-08T22:55:01.157Z,2.87
2019-02-08T22:57:27.404Z,2.70
2019-02-08T22:59:53.425Z,2.30
2019-02-08T23:02:19.666Z,2.70
2019-02-08T23:04:45.786Z,3.10
2019-02-08T23:07:11.789Z,3.63
2019-02-08T23:09:37.803Z,2.33
2019-02-08T23:12:04.802Z,2.90
2019-02-08T23:14:30.835Z,2.37
2019-02-08T23:16:57.170Z,2.80
2019-02-08T23:19:23.410Z,2.50
2019-02-08T23:21:49.417Z,3.27
2019-02-08T23:24:15.417Z,3.37
2019-02-08T23:26:41.470Z,2.93
2019-02-08T23:29:07.710Z,3.17
2019-02-08T23:31:34.814Z,3.00
2019-02-08T23:34:00.831Z,2.77
2019-02-08T23:36:26.842Z,2.63
2019-02-08T23:38:52.846Z,2.70
2019-02-08T23:41:18.871Z,3.80
2019-02-08T23:43:44.895Z,2.83
2019-02-08T23:46:11.243Z,3.67
2019-02-08T23:48:37.322Z,3.33
2019-02-08T23:51:03.329Z,3.77
2019-02-08T23:53:29.350Z,3.50
2019-02-08T23:55:55.356Z,4.10
2019-02-08T23:58:21.380Z,4.53
